sensor_id;sensor_type;location;lat;lon;timestamp;P1;durP1;ratioP1;P2;durP2;ratioP2
14007;SDS011;61651;45.508;12.232;2022-07-18T00:00:21;3.45;;;2.58;;
14007;SDS011;61651;45.508;12.232;2022-07-18T00:03:23;4.72;;;2.90;;
14007;SDS011;61651;45.508;12.232;2022-07-18T00:06:25;4.22;;;2.83;;
14007;SDS011;61651;45.508;12.232;2022-07-18T00:09:27;3.17;;;2.78;;
14007;SDS011;61651;45.508;12.232;2022-07-18T00:12:29;3.45;;;2.88;;
14007;SDS011;61651;45.508;12.232;2022-07-18T00:15:32;3.10;;;2.90;;
14007;SDS011;61651;45.508;12.232;2022-07-18T00:18:34;3.92;;;3.45;;
14007;SDS011;61651;45.508;12.232;2022-07-18T00:21:36;3.38;;;3.08;;
14007;SDS011;61651;45.508;12.232;2022-07-18T00:24:39;4.85;;;3.63;;
14007;SDS011;61651;45.508;12.232;2022-07-18T00:27:41;3.13;;;2.83;;
14007;SDS011;61651;45.508;12.232;2022-07-18T00:30:44;6.32;;;3.78;;
14007;SDS011;61651;45.508;12.232;2022-07-18T00:33:46;3.42;;;3.13;;
14007;SDS011;61651;45.508;12.232;2022-07-18T00:36:48;5.95;;;3.10;;
14007;SDS011;61651;45.508;12.232;2022-07-18T00:39:50;2.90;;;2.70;;
14007;SDS011;61651;45.508;12.232;2022-07-18T00:42:52;3.47;;;3.17;;
14007;SDS011;61651;45.508;12.232;2022-07-18T00:45:56;3.75;;;3.30;;
14007;SDS011;61651;45.508;12.232;2022-07-18T00:48:58;5.75;;;3.58;;
14007;SDS011;61651;45.508;12.232;2022-07-18T00:52:00;4.90;;;3.63;;
14007;SDS011;61651;45.508;12.232;2022-07-18T00:55:02;3.42;;;3.10;;
14007;SDS011;61651;45.508;12.232;2022-07-18T00:58:05;3.55;;;3.25;;
14007;SDS011;61651;45.508;12.232;2022-07-18T01:01:09;3.78;;;3.40;;
14007;SDS011;61651;45.508;12.232;2022-07-18T01:04:29;3.60;;;3.30;;
14007;SDS011;61651;45.508;12.232;2022-07-18T01:07:31;2.78;;;2.58;;
14007;SDS011;61651;45.508;12.232;2022-07-18T01:10:33;5.75;;;3.00;;
14007;SDS011;61651;45.508;12.232;2022-07-18T01:13:35;3.42;;;3.13;;
14007;SDS011;61651;45.508;12.232;2022-07-18T01:16:39;3.55;;;2.67;;
14007;SDS011;61651;45.508;12.232;2022-07-18T01:19:41;3.05;;;2.80;;
14007;SDS011;61651;45.508;12.232;2022-07-18T01:22:45;4.63;;;3.80;;
14007;SDS011;61651;45.508;12.232;2022-07-18T01:25:47;3.00;;;2.47;;
14007;SDS011;61651;45.508;12.232;2022-07-18T01:28:49;3.47;;;3.08;;
14007;SDS011;61651;45.508;12.232;2022-07-18T01:31:51;5.32;;;3.00;;
14007;SDS011;61651;45.508;12.232;2022-07-18T01:34:53;2.83;;;2.53;;
14007;SDS011;61651;45.508;12.232;2022-07-18T01:37:57;3.20;;;2.83;;
14007;SDS011;61651;45.508;12.232;2022-07-18T01:41:00;3.00;;;2.60;;
14007;SDS011;61651;45.508;12.232;2022-07-18T01:44:04;3.63;;;2.83;;
14007;SDS011;61651;45.508;12.232;2022-07-18T01:47:07;3.22;;;2.92;;
14007;SDS011;61651;45.508;12.232;2022-07-18T01:50:11;6.03;;;3.13;;
14007;SDS011;61651;45.508;12.232;2022-07-18T01:53:15;4.65;;;3.10;;
14007;SDS011;61651;45.508;12.232;2022-07-18T01:56:17;3.10;;;2.80;;
14007;SDS011;61651;45.508;12.232;2022-07-18T01:59:19;6.22;;;3.30;;
14007;SDS011;61651;45.508;12.232;2022-07-18T02:02:21;3.10;;;2.55;;
14007;SDS011;61651;45.508;12.232;2022-07-18T02:05:23;3.30;;;3.00;;
14007;SDS011;61651;45.508;12.232;2022-07-18T02:08:27;3.55;;;3.22;;
14007;SDS011;61651;45.508;12.232;2022-07-18T02:11:29;4.20;;;2.97;;
14007;SDS011;61651;45.508;12.232;2022-07-18T02:14:31;3.10;;;2.80;;
14007;SDS011;61651;45.508;12.232;2022-07-18T02:17:33;3.05;;;2.75;;
14007;SDS011;61651;45.508;12.232;2022-07-18T02:20:35;3.08;;;2.78;;
14007;SDS011;61651;45.508;12.232;2022-07-18T02:23:40;2.88;;;2.67;;
14007;SDS011;61651;45.508;12.232;2022-07-18T02:26:42;2.70;;;2.50;;
14007;SDS011;61651;45.508;12.232;2022-07-18T02:29:45;3.03;;;2.63;;
14007;SDS011;61651;45.508;12.232;2022-07-18T02:32:47;5.40;;;2.58;;
14007;SDS011;61651;45.508;12.232;2022-07-18T02:35:49;3.40;;;2.40;;
14007;SDS011;61651;45.508;12.232;2022-07-18T02:38:53;4.22;;;2.55;;
14007;SDS011;61651;45.508;12.232;2022-07-18T02:41:55;3.67;;;2.65;;
14007;SDS011;61651;45.508;12.232;2022-07-18T02:44:57;3.58;;;2.92;;
14007;SDS011;61651;45.508;12.232;2022-07-18T02:48:00;3.45;;;2.78;;
14007;SDS011;61651;45.508;12.232;2022-07-18T02:51:02;3.00;;;2.47;;
14007;SDS011;61651;45.508;12.232;2022-07-18T02:54:05;2.92;;;2.60;;
14007;SDS011;61651;45.508;12.232;2022-07-18T02:57:07;3.35;;;2.78;;
14007;SDS011;61651;45.508;12.232;2022-07-18T03:00:10;4.13;;;2.72;;
14007;SDS011;61651;45.508;12.232;2022-07-18T03:03:14;2.70;;;2.50;;
14007;SDS011;61651;45.508;12.232;2022-07-18T03:06:16;2.97;;;2.60;;
14007;SDS011;61651;45.508;12.232;2022-07-18T03:09:19;2.75;;;2.55;;
14007;SDS011;61651;45.508;12.232;2022-07-18T03:12:22;3.10;;;2.80;;
14007;SDS011;61651;45.508;12.232;2022-07-18T03:15:24;4.43;;;2.47;;
14007;SDS011;61651;45.508;12.232;2022-07-18T03:18:26;2.55;;;2.30;;
14007;SDS011;61651;45.508;12.232;2022-07-18T03:21:28;3.00;;;2.70;;
14007;SDS011;61651;45.508;12.232;2022-07-18T03:24:31;3.20;;;2.90;;
14007;SDS011;61651;45.508;12.232;2022-07-18T03:27:33;2.78;;;2.33;;
14007;SDS011;61651;45.508;12.232;2022-07-18T03:30:35;4.43;;;2.60;;
14007;SDS011;61651;45.508;12.232;2022-07-18T03:33:37;3.30;;;2.65;;
14007;SDS011;61651;45.508;12.232;2022-07-18T03:36:40;4.18;;;2.53;;
14007;SDS011;61651;45.508;12.232;2022-07-18T03:39:43;2.75;;;2.50;;
14007;SDS011;61651;45.508;12.232;2022-07-18T03:42:45;2.78;;;2.45;;
14007;SDS011;61651;45.508;12.232;2022-07-18T03:45:47;3.80;;;2.50;;
14007;SDS011;61651;45.508;12.232;2022-07-18T03:48:49;3.65;;;2.83;;
14007;SDS011;61651;45.508;12.232;2022-07-18T03:51:51;3.15;;;2.85;;
14007;SDS011;61651;45.508;12.232;2022-07-18T03:54:57;3.00;;;2.67;;
14007;SDS011;61651;45.508;12.232;2022-07-18T03:58:01;4.03;;;2.72;;
14007;SDS011;61651;45.508;12.232;2022-07-18T04:01:03;2.78;;;2.40;;
14007;SDS011;61651;45.508;12.232;2022-07-18T04:04:06;2.42;;;2.22;;
14007;SDS011;61651;45.508;12.232;2022-07-18T04:07:08;4.75;;;2.38;;
14007;SDS011;61651;45.508;12.232;2022-07-18T04:10:11;2.83;;;2.60;;
14007;SDS011;61651;45.508;12.232;2022-07-18T04:13:13;2.47;;;2.28;;
14007;SDS011;61651;45.508;12.232;2022-07-18T04:16:16;2.22;;;2.03;;
14007;SDS011;61651;45.508;12.232;2022-07-18T04:19:17;2.75;;;2.55;;
14007;SDS011;61651;45.508;12.232;2022-07-18T04:22:19;3.67;;;2.35;;
14007;SDS011;61651;45.508;12.232;2022-07-18T04:25:23;2.70;;;2.33;;
14007;SDS011;61651;45.508;12.232;2022-07-18T04:28:26;2.47;;;2.28;;
14007;SDS011;61651;45.508;12.232;2022-07-18T04:31:28;4.38;;;3.08;;
14007;SDS011;61651;45.508;12.232;2022-07-18T04:34:30;3.40;;;2.72;;
14007;SDS011;61651;45.508;12.232;2022-07-18T04:37:33;3.85;;;3.03;;
14007;SDS011;61651;45.508;12.232;2022-07-18T04:40:37;3.03;;;2.75;;
14007;SDS011;61651;45.508;12.232;2022-07-18T04:43:39;2.80;;;2.38;;
14007;SDS011;61651;45.508;12.232;2022-07-18T04:46:41;2.40;;;2.20;;
14007;SDS011;61651;45.508;12.232;2022-07-18T04:49:43;3.85;;;2.83;;
14007;SDS011;61651;45.508;12.232;2022-07-18T04:52:46;3.25;;;2.58;;
14007;SDS011;61651;45.508;12.232;2022-07-18T04:55:49;2.50;;;2.20;;
14007;SDS011;61651;45.508;12.232;2022-07-18T04:58:51;3.20;;;2.33;;
14007;SDS011;61651;45.508;12.232;2022-07-18T05:01:53;3.15;;;2.67;;
14007;SDS011;61651;45.508;12.232;2022-07-18T05:04:55;6.53;;;2.25;;
14007;SDS011;61651;45.508;12.232;2022-07-18T05:07:57;3.65;;;2.42;;
14007;SDS011;61651;45.508;12.232;2022-07-18T05:11:01;3.13;;;2.30;;
14007;SDS011;61651;45.508;12.232;2022-07-18T05:14:03;3.83;;;2.42;;
14007;SDS011;61651;45.508;12.232;2022-07-18T05:17:05;3.17;;;2.28;;
14007;SDS011;61651;45.508;12.232;2022-07-18T05:20:08;2.50;;;2.30;;
14007;SDS011;61651;45.508;12.232;2022-07-18T05:23:13;2.50;;;2.28;;
14007;SDS011;61651;45.508;12.232;2022-07-18T05:26:16;2.55;;;2.35;;
14007;SDS011;61651;45.508;12.232;2022-07-18T05:29:18;2.65;;;2.45;;
14007;SDS011;61651;45.508;12.232;2022-07-18T05:32:20;3.58;;;2.63;;
14007;SDS011;61651;45.508;12.232;2022-07-18T05:35:22;2.80;;;2.50;;
14007;SDS011;61651;45.508;12.232;2022-07-18T05:38:25;2.65;;;2.40;;
14007;SDS011;61651;45.508;12.232;2022-07-18T05:41:28;2.65;;;2.35;;
14007;SDS011;61651;45.508;12.232;2022-07-18T05:44:30;3.38;;;2.70;;
14007;SDS011;61651;45.508;12.232;2022-07-18T05:47:33;2.53;;;2.30;;
14007;SDS011;61651;45.508;12.232;2022-07-18T05:50:35;3.72;;;2.40;;
14007;SDS011;61651;45.508;12.232;2022-07-18T05:53:37;4.05;;;2.47;;
14007;SDS011;61651;45.508;12.232;2022-07-18T05:56:41;2.88;;;2.60;;
14007;SDS011;61651;45.508;12.232;2022-07-18T05:59:43;2.88;;;2.30;;
14007;SDS011;61651;45.508;12.232;2022-07-18T06:02:46;4.55;;;2.53;;
14007;SDS011;61651;45.508;12.232;2022-07-18T06:05:48;3.92;;;2.60;;
14007;SDS011;61651;45.508;12.232;2022-07-18T06:08:50;2.83;;;2.60;;
14007;SDS011;61651;45.508;12.232;2022-07-18T06:11:54;5.53;;;2.60;;
14007;SDS011;61651;45.508;12.232;2022-07-18T06:14:56;3.20;;;2.90;;
14007;SDS011;61651;45.508;12.232;2022-07-18T06:17:58;7.47;;;2.75;;
14007;SDS011;61651;45.508;12.232;2022-07-18T06:21:00;2.83;;;2.60;;
14007;SDS011;61651;45.508;12.232;2022-07-18T06:24:02;4.07;;;2.92;;
14007;SDS011;61651;45.508;12.232;2022-07-18T06:27:06;4.05;;;3.13;;
14007;SDS011;61651;45.508;12.232;2022-07-18T06:30:09;4.45;;;3.70;;
14007;SDS011;61651;45.508;12.232;2022-07-18T06:33:11;3.63;;;3.33;;
14007;SDS011;61651;45.508;12.232;2022-07-18T06:36:13;8.65;;;3.90;;
14007;SDS011;61651;45.508;12.232;2022-07-18T06:39:15;3.78;;;3.40;;
14007;SDS011;61651;45.508;12.232;2022-07-18T06:42:20;3.58;;;3.05;;
14007;SDS011;61651;45.508;12.232;2022-07-18T06:45:22;3.85;;;3.10;;
14007;SDS011;61651;45.508;12.232;2022-07-18T06:48:24;3.10;;;2.60;;
14007;SDS011;61651;45.508;12.232;2022-07-18T06:51:26;4.35;;;2.78;;
14007;SDS011;61651;45.508;12.232;2022-07-18T06:54:28;3.33;;;2.80;;
14007;SDS011;61651;45.508;12.232;2022-07-18T06:57:32;3.10;;;2.80;;
14007;SDS011;61651;45.508;12.232;2022-07-18T07:00:34;4.25;;;2.78;;
14007;SDS011;61651;45.508;12.232;2022-07-18T07:03:36;3.00;;;2.70;;
14007;SDS011;61651;45.508;12.232;2022-07-18T07:06:38;4.60;;;2.80;;
14007;SDS011;61651;45.508;12.232;2022-07-18T07:09:40;3.83;;;2.58;;
14007;SDS011;61651;45.508;12.232;2022-07-18T07:12:44;2.67;;;2.47;;
14007;SDS011;61651;45.508;12.232;2022-07-18T07:15:47;5.00;;;2.72;;
14007;SDS011;61651;45.508;12.232;2022-07-18T07:18:50;3.05;;;2.65;;
14007;SDS011;61651;45.508;12.232;2022-07-18T07:21:52;5.88;;;2.90;;
14007;SDS011;61651;45.508;12.232;2022-07-18T07:24:54;2.80;;;2.50;;
14007;SDS011;61651;45.508;12.232;2022-07-18T07:27:57;4.28;;;2.20;;
14007;SDS011;61651;45.508;12.232;2022-07-18T07:30:59;2.92;;;2.28;;
14007;SDS011;61651;45.508;12.232;2022-07-18T07:34:01;6.47;;;2.40;;
14007;SDS011;61651;45.508;12.232;2022-07-18T07:37:03;3.58;;;2.22;;
14007;SDS011;61651;45.508;12.232;2022-07-18T07:40:05;4.05;;;2.92;;
14007;SDS011;61651;45.508;12.232;2022-07-18T07:43:12;5.55;;;2.95;;
14007;SDS011;61651;45.508;12.232;2022-07-18T07:46:14;3.40;;;3.10;;
14007;SDS011;61651;45.508;12.232;2022-07-18T07:49:16;3.60;;;3.03;;
14007;SDS011;61651;45.508;12.232;2022-07-18T07:52:18;3.85;;;3.20;;
14007;SDS011;61651;45.508;12.232;2022-07-18T07:55:20;3.08;;;2.70;;
14007;SDS011;61651;45.508;12.232;2022-07-18T07:58:24;3.65;;;3.20;;
14007;SDS011;61651;45.508;12.232;2022-07-18T08:01:26;6.53;;;3.22;;
14007;SDS011;61651;45.508;12.232;2022-07-18T08:04:28;3.15;;;2.75;;
14007;SDS011;61651;45.508;12.232;2022-07-18T08:07:30;3.67;;;3.10;;
14007;SDS011;61651;45.508;12.232;2022-07-18T08:10:32;3.95;;;2.42;;
14007;SDS011;61651;45.508;12.232;2022-07-18T08:13:36;3.58;;;2.70;;
14007;SDS011;61651;45.508;12.232;2022-07-18T08:16:38;3.78;;;2.42;;
14007;SDS011;61651;45.508;12.232;2022-07-18T08:19:40;4.03;;;2.28;;
14007;SDS011;61651;45.508;12.232;2022-07-18T08:22:55;5.82;;;2.63;;
14007;SDS011;61651;45.508;12.232;2022-07-18T08:25:58;2.75;;;2.33;;
14007;SDS011;61651;45.508;12.232;2022-07-18T08:29:02;3.45;;;2.45;;
14007;SDS011;61651;45.508;12.232;2022-07-18T08:32:04;3.60;;;2.22;;
14007;SDS011;61651;45.508;12.232;2022-07-18T08:35:06;2.80;;;2.33;;
14007;SDS011;61651;45.508;12.232;2022-07-18T08:38:09;2.55;;;2.15;;
14007;SDS011;61651;45.508;12.232;2022-07-18T08:41:11;2.28;;;2.08;;
14007;SDS011;61651;45.508;12.232;2022-07-18T08:44:15;2.75;;;2.22;;
14007;SDS011;61651;45.508;12.232;2022-07-18T08:47:17;2.75;;;2.30;;
14007;SDS011;61651;45.508;12.232;2022-07-18T08:50:20;5.25;;;2.28;;
14007;SDS011;61651;45.508;12.232;2022-07-18T08:53:23;4.97;;;2.50;;
14007;SDS011;61651;45.508;12.232;2022-07-18T08:56:26;6.10;;;2.78;;
14007;SDS011;61651;45.508;12.232;2022-07-18T08:59:29;4.10;;;3.35;;
14007;SDS011;61651;45.508;12.232;2022-07-18T09:02:31;4.25;;;3.00;;
14007;SDS011;61651;45.508;12.232;2022-07-18T09:05:33;3.83;;;3.35;;
14007;SDS011;61651;45.508;12.232;2022-07-18T09:08:36;5.93;;;2.97;;
14007;SDS011;61651;45.508;12.232;2022-07-18T09:11:49;4.15;;;3.13;;
14007;SDS011;61651;45.508;12.232;2022-07-18T09:14:54;3.55;;;2.97;;
14007;SDS011;61651;45.508;12.232;2022-07-18T09:17:56;2.47;;;2.25;;
14007;SDS011;61651;45.508;12.232;2022-07-18T09:20:59;4.55;;;2.78;;
14007;SDS011;61651;45.508;12.232;2022-07-18T09:24:03;3.90;;;2.65;;
14007;SDS011;61651;45.508;12.232;2022-07-18T09:27:05;4.55;;;2.45;;
14007;SDS011;61651;45.508;12.232;2022-07-18T09:30:26;2.55;;;2.35;;
14007;SDS011;61651;45.508;12.232;2022-07-18T09:33:30;5.03;;;2.70;;
14007;SDS011;61651;45.508;12.232;2022-07-18T09:36:32;3.67;;;2.50;;
14007;SDS011;61651;45.508;12.232;2022-07-18T09:39:36;4.18;;;2.70;;
14007;SDS011;61651;45.508;12.232;2022-07-18T09:42:38;3.55;;;2.80;;
14007;SDS011;61651;45.508;12.232;2022-07-18T09:45:43;3.25;;;2.88;;
14007;SDS011;61651;45.508;12.232;2022-07-18T09:48:47;3.70;;;2.70;;
14007;SDS011;61651;45.508;12.232;2022-07-18T09:52:09;2.67;;;2.47;;
14007;SDS011;61651;45.508;12.232;2022-07-18T09:55:11;3.00;;;2.80;;
14007;SDS011;61651;45.508;12.232;2022-07-18T09:58:14;3.83;;;2.40;;
14007;SDS011;61651;45.508;12.232;2022-07-18T10:01:22;4.85;;;2.60;;
14007;SDS011;61651;45.508;12.232;2022-07-18T10:04:25;5.78;;;2.60;;
14007;SDS011;61651;45.508;12.232;2022-07-18T10:07:27;4.05;;;2.53;;
14007;SDS011;61651;45.508;12.232;2022-07-18T10:10:29;8.00;;;3.10;;
14007;SDS011;61651;45.508;12.232;2022-07-18T10:13:32;2.75;;;2.50;;
14007;SDS011;61651;45.508;12.232;2022-07-18T10:16:37;4.32;;;3.00;;
14007;SDS011;61651;45.508;12.232;2022-07-18T10:19:39;3.03;;;2.40;;
14007;SDS011;61651;45.508;12.232;2022-07-18T10:22:42;2.65;;;2.45;;
14007;SDS011;61651;45.508;12.232;2022-07-18T10:25:44;4.88;;;2.47;;
14007;SDS011;61651;45.508;12.232;2022-07-18T10:29:09;2.50;;;2.30;;
14007;SDS011;61651;45.508;12.232;2022-07-18T10:32:21;2.72;;;2.50;;
14007;SDS011;61651;45.508;12.232;2022-07-18T10:39:05;2.90;;;2.60;;
14007;SDS011;61651;45.508;12.232;2022-07-18T10:42:12;4.13;;;2.90;;
14007;SDS011;61651;45.508;12.232;2022-07-18T10:45:20;3.10;;;2.80;;
14007;SDS011;61651;45.508;12.232;2022-07-18T10:48:52;3.23;;;2.93;;
14007;SDS011;61651;45.508;12.232;2022-07-18T10:51:55;2.72;;;2.53;;
14007;SDS011;61651;45.508;12.232;2022-07-18T10:58:33;4.80;;;2.92;;
14007;SDS011;61651;45.508;12.232;2022-07-18T11:01:44;4.10;;;2.60;;
14007;SDS011;61651;45.508;12.232;2022-07-18T11:04:51;3.00;;;2.40;;
14007;SDS011;61651;45.508;12.232;2022-07-18T11:11:17;2.83;;;2.42;;
14007;SDS011;61651;45.508;12.232;2022-07-18T11:17:58;3.95;;;2.72;;
14007;SDS011;61651;45.508;12.232;2022-07-18T11:21:03;3.15;;;2.60;;
14007;SDS011;61651;45.508;12.232;2022-07-18T11:24:17;4.60;;;2.70;;
14007;SDS011;61651;45.508;12.232;2022-07-18T11:27:22;2.88;;;2.60;;
14007;SDS011;61651;45.508;12.232;2022-07-18T11:30:24;2.67;;;2.45;;
14007;SDS011;61651;45.508;12.232;2022-07-18T11:33:27;2.45;;;2.13;;
14007;SDS011;61651;45.508;12.232;2022-07-18T11:36:32;3.03;;;2.50;;
14007;SDS011;61651;45.508;12.232;2022-07-18T11:39:34;2.35;;;2.15;;
14007;SDS011;61651;45.508;12.232;2022-07-18T11:42:36;2.65;;;2.40;;
14007;SDS011;61651;45.508;12.232;2022-07-18T11:45:39;2.70;;;2.50;;
14007;SDS011;61651;45.508;12.232;2022-07-18T11:48:41;6.20;;;3.03;;
14007;SDS011;61651;45.508;12.232;2022-07-18T11:51:45;6.95;;;3.25;;
14007;SDS011;61651;45.508;12.232;2022-07-18T11:54:47;3.47;;;2.50;;
14007;SDS011;61651;45.508;12.232;2022-07-18T11:57:49;2.80;;;2.25;;
14007;SDS011;61651;45.508;12.232;2022-07-18T12:00:51;2.78;;;2.58;;
14007;SDS011;61651;45.508;12.232;2022-07-18T12:04:00;4.25;;;2.50;;
14007;SDS011;61651;45.508;12.232;2022-07-18T12:07:16;2.72;;;2.08;;
14007;SDS011;61651;45.508;12.232;2022-07-18T12:10:19;2.75;;;2.50;;
14007;SDS011;61651;45.508;12.232;2022-07-18T12:13:21;2.30;;;2.10;;
14007;SDS011;61651;45.508;12.232;2022-07-18T12:16:28;3.03;;;2.50;;
14007;SDS011;61651;45.508;12.232;2022-07-18T12:19:32;3.50;;;2.45;;
14007;SDS011;61651;45.508;12.232;2022-07-18T12:22:37;4.13;;;2.88;;
14007;SDS011;61651;45.508;12.232;2022-07-18T12:26:07;2.90;;;2.65;;
14007;SDS011;61651;45.508;12.232;2022-07-18T12:29:09;8.02;;;2.78;;
14007;SDS011;61651;45.508;12.232;2022-07-18T12:32:14;3.90;;;2.55;;
14007;SDS011;61651;45.508;12.232;2022-07-18T12:35:18;3.50;;;2.40;;
14007;SDS011;61651;45.508;12.232;2022-07-18T12:38:22;2.75;;;2.50;;
14007;SDS011;61651;45.508;12.232;2022-07-18T12:41:27;2.70;;;2.30;;
14007;SDS011;61651;45.508;12.232;2022-07-18T12:44:29;2.22;;;2.10;;
14007;SDS011;61651;45.508;12.232;2022-07-18T12:47:31;5.03;;;2.60;;
14007;SDS011;61651;45.508;12.232;2022-07-18T12:50:33;2.90;;;2.70;;
14007;SDS011;61651;45.508;12.232;2022-07-18T12:53:38;4.25;;;2.80;;
14007;SDS011;61651;45.508;12.232;2022-07-18T12:56:41;2.88;;;2.65;;
14007;SDS011;61651;45.508;12.232;2022-07-18T12:59:43;2.78;;;2.25;;
14007;SDS011;61651;45.508;12.232;2022-07-18T13:02:46;2.90;;;2.60;;
14007;SDS011;61651;45.508;12.232;2022-07-18T13:05:48;3.40;;;2.42;;
14007;SDS011;61651;45.508;12.232;2022-07-18T13:08:51;4.57;;;2.40;;
14007;SDS011;61651;45.508;12.232;2022-07-18T13:11:53;2.20;;;2.08;;
14007;SDS011;61651;45.508;12.232;2022-07-18T13:14:55;2.95;;;2.28;;
14007;SDS011;61651;45.508;12.232;2022-07-18T13:17:57;2.85;;;2.20;;
14007;SDS011;61651;45.508;12.232;2022-07-18T13:20:59;2.63;;;2.42;;
14007;SDS011;61651;45.508;12.232;2022-07-18T13:24:03;3.90;;;2.38;;
14007;SDS011;61651;45.508;12.232;2022-07-18T13:27:05;2.80;;;2.60;;
14007;SDS011;61651;45.508;12.232;2022-07-18T13:30:08;3.25;;;2.38;;
14007;SDS011;61651;45.508;12.232;2022-07-18T13:33:11;3.15;;;2.10;;
14007;SDS011;61651;45.508;12.232;2022-07-18T13:36:13;2.90;;;2.05;;
14007;SDS011;61651;45.508;12.232;2022-07-18T13:39:17;3.10;;;2.30;;
14007;SDS011;61651;45.508;12.232;2022-07-18T13:42:20;3.15;;;2.10;;
14007;SDS011;61651;45.508;12.232;2022-07-18T13:45:22;3.28;;;2.38;;
14007;SDS011;61651;45.508;12.232;2022-07-18T13:48:24;2.67;;;2.08;;
14007;SDS011;61651;45.508;12.232;2022-07-18T13:51:26;3.38;;;2.40;;
14007;SDS011;61651;45.508;12.232;2022-07-18T13:54:29;3.80;;;2.10;;
14007;SDS011;61651;45.508;12.232;2022-07-18T13:57:31;3.60;;;2.20;;
14007;SDS011;61651;45.508;12.232;2022-07-18T14:00:33;2.80;;;2.45;;
14007;SDS011;61651;45.508;12.232;2022-07-18T14:03:36;3.38;;;2.55;;
14007;SDS011;61651;45.508;12.232;2022-07-18T14:06:38;2.70;;;2.50;;
14007;SDS011;61651;45.508;12.232;2022-07-18T14:09:41;2.25;;;2.05;;
14007;SDS011;61651;45.508;12.232;2022-07-18T14:12:43;2.67;;;2.10;;
14007;SDS011;61651;45.508;12.232;2022-07-18T14:15:45;3.58;;;2.13;;
14007;SDS011;61651;45.508;12.232;2022-07-18T14:18:47;2.38;;;2.08;;
14007;SDS011;61651;45.508;12.232;2022-07-18T14:21:49;2.30;;;2.10;;
14007;SDS011;61651;45.508;12.232;2022-07-18T14:24:52;3.13;;;2.08;;
14007;SDS011;61651;45.508;12.232;2022-07-18T14:27:54;2.35;;;1.95;;
14007;SDS011;61651;45.508;12.232;2022-07-18T14:30:56;2.70;;;1.98;;
14007;SDS011;61651;45.508;12.232;2022-07-18T14:33:58;2.42;;;2.22;;
14007;SDS011;61651;45.508;12.232;2022-07-18T14:37:00;7.40;;;2.20;;
14007;SDS011;61651;45.508;12.232;2022-07-18T14:40:04;5.78;;;2.38;;
14007;SDS011;61651;45.508;12.232;2022-07-18T14:43:07;3.75;;;2.20;;
14007;SDS011;61651;45.508;12.232;2022-07-18T14:46:09;2.55;;;2.35;;
14007;SDS011;61651;45.508;12.232;2022-07-18T14:49:11;2.67;;;2.42;;
14007;SDS011;61651;45.508;12.232;2022-07-18T14:52:13;2.45;;;2.25;;
14007;SDS011;61651;45.508;12.232;2022-07-18T14:55:17;2.60;;;2.40;;
14007;SDS011;61651;45.508;12.232;2022-07-18T14:58:19;2.95;;;2.58;;
14007;SDS011;61651;45.508;12.232;2022-07-18T15:01:21;2.60;;;2.40;;
14007;SDS011;61651;45.508;12.232;2022-07-18T15:04:24;2.35;;;2.15;;
14007;SDS011;61651;45.508;12.232;2022-07-18T15:07:26;3.15;;;2.25;;
14007;SDS011;61651;45.508;12.232;2022-07-18T15:10:30;3.30;;;2.40;;
14007;SDS011;61651;45.508;12.232;2022-07-18T15:13:32;2.72;;;2.50;;
14007;SDS011;61651;45.508;12.232;2022-07-18T15:16:34;2.10;;;2.00;;
14007;SDS011;61651;45.508;12.232;2022-07-18T15:19:36;2.28;;;2.08;;
14007;SDS011;61651;45.508;12.232;2022-07-18T15:22:38;2.40;;;2.20;;
14007;SDS011;61651;45.508;12.232;2022-07-18T15:36:19;2.95;;;2.38;;
14007;SDS011;61651;45.508;12.232;2022-07-18T15:39:21;2.88;;;2.13;;
14007;SDS011;61651;45.508;12.232;2022-07-18T15:42:23;3.92;;;2.58;;
14007;SDS011;61651;45.508;12.232;2022-07-18T15:45:25;2.92;;;2.55;;
14007;SDS011;61651;45.508;12.232;2022-07-18T15:48:27;2.65;;;2.45;;
14007;SDS011;61651;45.508;12.232;2022-07-18T15:51:31;2.45;;;2.25;;
14007;SDS011;61651;45.508;12.232;2022-07-18T15:54:33;2.55;;;2.03;;
14007;SDS011;61651;45.508;12.232;2022-07-18T15:57:35;3.40;;;2.47;;
14007;SDS011;61651;45.508;12.232;2022-07-18T16:00:37;3.05;;;2.40;;
14007;SDS011;61651;45.508;12.232;2022-07-18T16:03:39;4.57;;;2.50;;
14007;SDS011;61651;45.508;12.232;2022-07-18T16:06:43;3.15;;;2.53;;
14007;SDS011;61651;45.508;12.232;2022-07-18T16:09:45;2.40;;;2.20;;
14007;SDS011;61651;45.508;12.232;2022-07-18T16:12:47;3.90;;;2.25;;
14007;SDS011;61651;45.508;12.232;2022-07-18T16:15:49;2.80;;;2.30;;
14007;SDS011;61651;45.508;12.232;2022-07-18T16:18:51;2.97;;;2.67;;
14007;SDS011;61651;45.508;12.232;2022-07-18T16:21:54;2.38;;;2.17;;
14007;SDS011;61651;45.508;12.232;2022-07-18T16:24:56;2.63;;;2.42;;
14007;SDS011;61651;45.508;12.232;2022-07-18T16:27:58;2.50;;;2.30;;
14007;SDS011;61651;45.508;12.232;2022-07-18T16:31:00;2.80;;;2.50;;
14007;SDS011;61651;45.508;12.232;2022-07-18T16:34:02;3.30;;;2.40;;
14007;SDS011;61651;45.508;12.232;2022-07-18T16:37:06;6.93;;;2.90;;
14007;SDS011;61651;45.508;12.232;2022-07-18T16:40:08;3.33;;;2.53;;
14007;SDS011;61651;45.508;12.232;2022-07-18T16:43:11;2.58;;;2.38;;
14007;SDS011;61651;45.508;12.232;2022-07-18T16:46:14;2.70;;;2.50;;
14007;SDS011;61651;45.508;12.232;2022-07-18T16:49:16;8.95;;;2.60;;
14007;SDS011;61651;45.508;12.232;2022-07-18T16:52:20;2.65;;;2.28;;
14007;SDS011;61651;45.508;12.232;2022-07-18T16:55:23;2.72;;;2.45;;
14007;SDS011;61651;45.508;12.232;2022-07-18T16:58:26;2.92;;;2.42;;
14007;SDS011;61651;45.508;12.232;2022-07-18T17:01:28;2.45;;;2.22;;
14007;SDS011;61651;45.508;12.232;2022-07-18T17:04:31;3.08;;;2.42;;
14007;SDS011;61651;45.508;12.232;2022-07-18T17:07:34;3.10;;;2.80;;
14007;SDS011;61651;45.508;12.232;2022-07-18T17:10:37;2.60;;;2.38;;
14007;SDS011;61651;45.508;12.232;2022-07-18T17:13:39;2.65;;;2.45;;
14007;SDS011;61651;45.508;12.232;2022-07-18T17:16:41;3.15;;;2.58;;
14007;SDS011;61651;45.508;12.232;2022-07-18T17:19:44;2.85;;;2.60;;
14007;SDS011;61651;45.508;12.232;2022-07-18T17:22:47;2.58;;;2.38;;
14007;SDS011;61651;45.508;12.232;2022-07-18T17:25:51;2.67;;;2.47;;
14007;SDS011;61651;45.508;12.232;2022-07-18T17:28:54;5.95;;;2.50;;
14007;SDS011;61651;45.508;12.232;2022-07-18T17:31:56;2.35;;;2.17;;
14007;SDS011;61651;45.508;12.232;2022-07-18T17:34:58;4.38;;;2.55;;
14007;SDS011;61651;45.508;12.232;2022-07-18T17:38:02;2.42;;;2.22;;
14007;SDS011;61651;45.508;12.232;2022-07-18T17:41:06;3.50;;;2.15;;
14007;SDS011;61651;45.508;12.232;2022-07-18T17:44:08;2.75;;;2.55;;
14007;SDS011;61651;45.508;12.232;2022-07-18T17:47:11;4.22;;;2.53;;
14007;SDS011;61651;45.508;12.232;2022-07-18T17:50:14;2.40;;;2.20;;
14007;SDS011;61651;45.508;12.232;2022-07-18T17:53:18;2.60;;;2.40;;
14007;SDS011;61651;45.508;12.232;2022-07-18T17:56:20;3.05;;;2.55;;
14007;SDS011;61651;45.508;12.232;2022-07-18T17:59:22;2.47;;;2.28;;
14007;SDS011;61651;45.508;12.232;2022-07-18T18:02:24;3.72;;;2.80;;
14007;SDS011;61651;45.508;12.232;2022-07-18T18:05:27;3.15;;;2.90;;
14007;SDS011;61651;45.508;12.232;2022-07-18T18:08:30;5.20;;;2.50;;
14007;SDS011;61651;45.508;12.232;2022-07-18T18:11:32;2.50;;;2.30;;
14007;SDS011;61651;45.508;12.232;2022-07-18T18:14:35;3.40;;;2.58;;
14007;SDS011;61651;45.508;12.232;2022-07-18T18:17:37;2.47;;;2.30;;
14007;SDS011;61651;45.508;12.232;2022-07-18T18:20:39;3.35;;;3.03;;
14007;SDS011;61651;45.508;12.232;2022-07-18T18:23:42;3.13;;;2.28;;
14007;SDS011;61651;45.508;12.232;2022-07-18T18:26:44;2.60;;;2.40;;
14007;SDS011;61651;45.508;12.232;2022-07-18T18:29:46;3.97;;;2.90;;